This is the latest recevied weather packets stored in our database for station/object KJ5FA-10. If no packets are shown the sender has not sent any weather packets the latest 10 day(s).
| Time | Temp. | Humidity | Pressure | Rain* | Wind** | Luminosity | Snow |
|---|---|---|---|---|---|---|---|
| 1777832671 | 24.44° C | 35% | 1020.3 hPa | 0 mm | - | - | - |
| 1777831771 | 23.89° C | 36% | 1020.6 hPa | 0 mm | - | - | - |
| 1777829971 | 23.89° C | 35% | 1021 hPa | 0 mm | - | - | - |
| 1777829072 | 23.33° C | 39% | 1021.3 hPa | 0 mm | - | - | - |
| 1777827271 | 21.67° C | 42% | 1022 hPa | 0 mm | - | - | - |
| 1777826372 | 20.56° C | 45% | 1022.2 hPa | 0 mm | - | - | - |
| 1777825471 | 20° C | 47% | 1022.6 hPa | 0 mm | - | - | - |
| 1777824571 | 19.44° C | 49% | 1022.5 hPa | 0 mm | - | - | - |
| 1777823672 | 18.89° C | 51% | 1022.8 hPa | 0 mm | - | - | - |
| 1777822771 | 17.78° C | 54% | 1022.9 hPa | 0 mm | - | - | - |
| 1777821872 | 17.22° C | 55% | 1022.9 hPa | 0 mm | - | - | - |
| 1777820072 | 15.56° C | 61% | 1023.4 hPa | 0 mm | - | - | - |
| 1777819172 | 14.44° C | 62% | 1023.5 hPa | 0 mm | - | - | - |
| 1777818271 | 13.89° C | 67% | 1023.7 hPa | 0 mm | - | - | - |
| 1777817371 | 12.78° C | 70% | 1023.4 hPa | 0 mm | - | - | - |
| 1777814671 | 10.56° C | 79% | 1023.7 hPa | 0 mm | - | - | - |
| 1777813771 | 10° C | 83% | 1023.6 hPa | 0 mm | - | - | - |
| 1777811971 | 7.22° C | 88% | 1023.6 hPa | 0 mm | - | - | - |
| 1777811071 | 7.22° C | 89% | 1023.4 hPa | 0 mm | - | - | - |
| 1777810173 | 6.67° C | 88% | 1023.2 hPa | 0 mm | - | - | - |
| 1777808371 | 6.11° C | 91% | 1023 hPa | 0 mm | - | - | - |
| 1777807471 | 6.67° C | 90% | 1022.9 hPa | 0 mm | - | - | - |
| 1777806572 | 6.67° C | 90% | 1022.9 hPa | 0 mm | - | - | - |
| 1777805671 | 6.67° C | 90% | 1022.5 hPa | 0 mm | - | - | - |
| 1777804771 | 6.67° C | 89% | 1022.4 hPa | 0 mm | - | - | - |
* Rain latest hour (hover to see other rain measurements)
** Current wind speed in m/s (hover to see current wind gust speed)